チタ の空港の天気 - METARとTAF

チタ・カダラ空港 ( UIAA / HTA ) - ロシア チタ
飛行場実況気象(Metar)
観測時間03/29 06:00 +09 (03/28 21:00 UTC)
風向・風速不定 1m/s
視程10km以上
天気現象
なし
気温-10℃
湿度85%
気圧1023hPa
METARUIAA 282100Z VRB01MPS 9999 NSC M10/M12 Q1023 R29/70D NOSIG RMK QFE708
過去の天気等 Google飛行場航空写真 Wunderground天気予報

過去48時間のMETAR

飛行場予報(TAF)
発表時間: 3/29 05:00 +09 (3/28 20:00 UTC)
予報対象時間: 29日6時 +09 ~ 30日6時 +09
風向・風速北 3m/s
視程10km以上
なし
TAF UIAA 282000Z 2821/2921 01003MPS 9999 NSC